createdAt,value
2019-05-20T00:01:31.669Z,17.00
2019-05-20T00:03:09.105Z,17.00
2019-05-20T00:04:47.144Z,16.90
2019-05-20T00:06:23.541Z,17.00
2019-05-20T00:08:00.153Z,17.10
2019-05-20T00:09:36.531Z,17.10
2019-05-20T00:11:13.909Z,17.20
2019-05-20T00:12:50.607Z,17.20
2019-05-20T00:14:27.749Z,17.20
2019-05-20T00:16:04.369Z,17.20
2019-05-20T00:17:41.970Z,17.30
2019-05-20T00:19:18.548Z,17.20
2019-05-20T00:20:56.252Z,17.10
2019-05-20T00:22:32.932Z,17.10
2019-05-20T00:24:10.122Z,17.10
2019-05-20T00:25:46.712Z,17.10
2019-05-20T00:27:23.910Z,17.10
2019-05-20T00:29:00.307Z,17.10
2019-05-20T00:30:37.559Z,17.00
2019-05-20T00:32:14.033Z,17.00
2019-05-20T00:33:51.312Z,17.00
2019-05-20T00:35:28.252Z,17.00
2019-05-20T00:37:05.657Z,16.90
2019-05-20T00:38:42.230Z,16.90
2019-05-20T00:40:19.474Z,17.00
2019-05-20T00:41:55.916Z,16.90
2019-05-20T00:43:33.136Z,16.90
2019-05-20T00:45:10.533Z,16.90
2019-05-20T00:46:47.729Z,16.90
2019-05-20T00:48:24.179Z,16.90
2019-05-20T00:50:01.307Z,17.00
2019-05-20T00:51:37.920Z,16.90
2019-05-20T00:53:15.169Z,16.90
2019-05-20T00:54:51.676Z,16.90
2019-05-20T00:56:29.140Z,17.00
2019-05-20T00:58:05.711Z,16.90
2019-05-20T00:59:43.052Z,16.90
2019-05-20T01:01:19.661Z,17.00
2019-05-20T01:02:57.723Z,17.00
2019-05-20T01:04:34.299Z,17.10
2019-05-20T01:06:11.588Z,17.00
2019-05-20T01:07:48.224Z,17.00
2019-05-20T01:09:25.368Z,17.00
2019-05-20T01:11:02.081Z,17.00
2019-05-20T01:12:39.210Z,16.90
2019-05-20T01:14:16.040Z,17.00
2019-05-20T01:15:53.398Z,17.00
2019-05-20T01:17:30.017Z,17.00
2019-05-20T01:19:07.291Z,17.00
2019-05-20T01:20:44.107Z,16.90
2019-05-20T01:22:21.151Z,17.00
2019-05-20T01:23:57.583Z,16.90
2019-05-20T01:25:34.860Z,17.00
2019-05-20T01:27:11.783Z,17.00
2019-05-20T01:28:49.080Z,16.90
2019-05-20T01:30:26.362Z,16.90
2019-05-20T01:32:02.897Z,16.90
2019-05-20T01:33:39.207Z,16.80
2019-05-20T01:35:16.812Z,16.80
2019-05-20T01:36:53.286Z,16.70
2019-05-20T01:38:30.561Z,16.70
2019-05-20T01:40:08.567Z,16.70
2019-05-20T01:41:45.751Z,16.60
2019-05-20T01:43:22.202Z,16.60
2019-05-20T01:44:59.403Z,16.60
2019-05-20T01:46:35.985Z,16.50
2019-05-20T01:48:13.296Z,16.50
2019-05-20T01:49:49.111Z,16.40
2019-05-20T01:51:26.487Z,16.40
2019-05-20T01:53:03.514Z,16.40
2019-05-20T01:54:40.885Z,16.40
2019-05-20T01:56:17.415Z,16.40
2019-05-20T01:57:54.759Z,16.30
2019-05-20T01:59:32.267Z,16.30
2019-05-20T02:01:09.446Z,16.30
2019-05-20T02:02:45.818Z,16.30
2019-05-20T02:04:23.565Z,16.30
2019-05-20T02:06:00.050Z,16.30
2019-05-20T02:07:37.492Z,16.30
2019-05-20T02:09:14.072Z,16.30
2019-05-20T02:10:51.275Z,16.30
2019-05-20T02:12:27.654Z,16.20
2019-05-20T02:14:05.944Z,16.20
2019-05-20T02:15:44.131Z,16.20
2019-05-20T02:17:21.742Z,16.20
2019-05-20T02:18:58.268Z,16.20
2019-05-20T02:20:35.529Z,16.10
2019-05-20T02:22:11.932Z,16.10
2019-05-20T02:23:49.199Z,16.10
2019-05-20T02:25:25.637Z,16.10
2019-05-20T02:27:02.853Z,16.00
2019-05-20T02:28:39.357Z,16.00
2019-05-20T02:30:17.019Z,16.00
2019-05-20T02:31:53.453Z,16.00
2019-05-20T02:33:47.857Z,16.10
2019-05-20T02:35:09.801Z,16.10
2019-05-20T02:36:46.847Z,16.00
2019-05-20T02:38:23.424Z,16.00
2019-05-20T02:40:00.596Z,16.00
2019-05-20T02:41:37.322Z,16.00
2019-05-20T02:43:14.787Z,16.10
2019-05-20T02:44:51.438Z,16.10
2019-05-20T02:46:28.685Z,16.10
2019-05-20T02:48:05.419Z,16.10
2019-05-20T02:49:42.734Z,16.10
2019-05-20T02:51:20.752Z,16.10
2019-05-20T02:52:58.163Z,16.10
2019-05-20T02:54:34.479Z,16.10
2019-05-20T02:56:11.775Z,16.10
2019-05-20T02:57:48.252Z,16.20
2019-05-20T02:59:25.817Z,16.20
2019-05-20T03:01:02.422Z,16.20
2019-05-20T03:02:39.575Z,16.20
2019-05-20T03:04:16.486Z,16.20
2019-05-20T03:05:53.931Z,16.30
2019-05-20T03:07:30.774Z,16.20
2019-05-20T03:09:11.973Z,16.30
2019-05-20T03:10:46.251Z,16.30
2019-05-20T03:12:23.757Z,16.30
2019-05-20T03:14:00.311Z,16.30
2019-05-20T03:15:37.582Z,16.30
2019-05-20T03:17:15.005Z,16.40
2019-05-20T03:18:52.367Z,16.40
2019-05-20T03:20:28.850Z,16.40
2019-05-20T03:22:06.512Z,16.40
2019-05-20T03:23:42.945Z,16.50
2019-05-20T03:25:20.339Z,16.40
2019-05-20T03:26:57.285Z,16.50
2019-05-20T03:28:34.842Z,16.50
2019-05-20T03:30:12.161Z,16.60
2019-05-20T03:31:49.318Z,16.50
2019-05-20T03:33:25.853Z,16.60
2019-05-20T03:35:03.268Z,16.60
2019-05-20T03:36:39.781Z,16.60
2019-05-20T03:38:17.215Z,16.60
2019-05-20T03:39:53.826Z,16.60
2019-05-20T03:41:31.121Z,16.60
2019-05-20T03:43:07.542Z,16.60
2019-05-20T03:44:44.729Z,16.60
2019-05-20T03:46:21.210Z,16.60
2019-05-20T03:47:58.464Z,16.60
2019-05-20T03:49:35.372Z,16.60
2019-05-20T03:51:13.014Z,16.60
2019-05-20T03:52:49.673Z,16.60
2019-05-20T03:54:26.792Z,16.50
2019-05-20T03:56:02.604Z,16.60
2019-05-20T03:57:39.883Z,16.50
2019-05-20T03:59:16.369Z,16.50
2019-05-20T04:00:53.433Z,16.50
2019-05-20T04:02:29.998Z,16.50
2019-05-20T04:04:07.436Z,16.60
2019-05-20T04:05:44.648Z,16.60
2019-05-20T04:07:21.894Z,16.60
2019-05-20T04:08:58.857Z,16.60
2019-05-20T04:10:36.508Z,16.60
2019-05-20T04:12:13.049Z,16.60
2019-05-20T04:13:50.095Z,16.70
2019-05-20T04:15:26.685Z,16.70
2019-05-20T04:17:04.937Z,16.70
2019-05-20T04:18:41.473Z,16.70
2019-05-20T04:20:18.829Z,16.70
2019-05-20T04:21:55.704Z,16.80
2019-05-20T04:23:33.084Z,16.70
2019-05-20T04:25:09.806Z,16.60
2019-05-20T04:26:46.942Z,16.80
2019-05-20T04:28:23.447Z,16.70
2019-05-20T04:30:01.189Z,16.80
2019-05-20T04:31:37.588Z,16.80
2019-05-20T04:33:15.138Z,16.80
2019-05-20T04:34:51.918Z,16.70
2019-05-20T04:36:29.035Z,16.70
2019-05-20T04:38:06.195Z,16.70
2019-05-20T04:39:44.365Z,16.70
2019-05-20T04:41:20.844Z,16.80
2019-05-20T04:42:58.099Z,16.90
2019-05-20T04:44:34.755Z,16.90
2019-05-20T04:46:11.979Z,16.80
2019-05-20T04:47:48.455Z,16.90
2019-05-20T04:49:25.645Z,16.90
2019-05-20T04:51:02.242Z,16.90
2019-05-20T04:52:40.409Z,16.80
2019-05-20T04:54:16.861Z,16.80
2019-05-20T04:55:53.409Z,16.80
2019-05-20T04:57:29.852Z,16.80
2019-05-20T04:59:07.433Z,16.80
2019-05-20T05:00:55.560Z,16.70
2019-05-20T05:02:32.661Z,16.80
2019-05-20T05:04:09.566Z,16.80
2019-05-20T05:05:47.973Z,16.80
2019-05-20T05:07:24.481Z,16.80
2019-05-20T05:09:02.632Z,16.70
2019-05-20T05:10:39.800Z,16.90
2019-05-20T05:12:17.584Z,16.90
2019-05-20T05:13:54.949Z,17.00
2019-05-20T05:15:32.229Z,17.00
2019-05-20T05:17:08.756Z,17.10
2019-05-20T05:18:47.022Z,17.10
2019-05-20T05:20:23.611Z,17.00
2019-05-20T05:22:01.066Z,17.10
2019-05-20T05:23:37.594Z,17.10
2019-05-20T05:25:15.592Z,17.20
2019-05-20T05:26:52.043Z,17.10
2019-05-20T05:28:29.346Z,17.10
2019-05-20T05:30:08.730Z,17.20
2019-05-20T05:31:46.338Z,17.20
2019-05-20T05:33:22.947Z,17.30
2019-05-20T05:35:00.740Z,17.30
2019-05-20T05:36:38.247Z,17.50
2019-05-20T05:38:15.674Z,17.60
2019-05-20T05:39:52.191Z,17.70
2019-05-20T05:41:29.355Z,17.70
2019-05-20T05:43:07.012Z,17.70
2019-05-20T05:44:44.327Z,17.80
2019-05-20T05:46:20.784Z,17.80
2019-05-20T05:47:57.971Z,18.00
2019-05-20T05:49:34.380Z,17.80
2019-05-20T05:51:11.727Z,17.90
2019-05-20T05:52:48.728Z,18.10
2019-05-20T05:54:27.713Z,18.30
2019-05-20T05:56:03.738Z,18.40
2019-05-20T05:57:41.045Z,18.40
2019-05-20T05:59:17.567Z,18.60
2019-05-20T06:00:55.155Z,18.80
2019-05-20T06:02:32.922Z,19.10
2019-05-20T06:04:10.546Z,19.10
2019-05-20T06:05:46.883Z,19.50
2019-05-20T06:07:24.158Z,19.40
2019-05-20T06:09:01.031Z,19.40
2019-05-20T06:10:39.129Z,19.60
2019-05-20T06:12:15.608Z,19.40
2019-05-20T06:13:52.726Z,19.80
2019-05-20T06:15:29.238Z,19.80
2019-05-20T06:17:07.473Z,19.80
2019-05-20T06:18:45.001Z,20.20
2019-05-20T06:20:22.615Z,19.90
2019-05-20T06:21:59.106Z,19.90
2019-05-20T06:23:36.482Z,20.30
2019-05-20T06:25:13.814Z,20.60
2019-05-20T06:26:51.254Z,20.60
2019-05-20T06:28:27.680Z,20.70
2019-05-20T06:30:09.259Z,21.00
2019-05-20T06:31:49.169Z,21.00
2019-05-20T06:33:25.725Z,21.30
2019-05-20T06:35:04.855Z,21.30
2019-05-20T06:38:45.043Z,21.30
2019-05-20T06:40:22.791Z,21.30
2019-05-20T06:41:59.413Z,21.50
2019-05-20T06:43:36.663Z,21.40
2019-05-20T06:45:13.780Z,21.30
2019-05-20T06:46:51.330Z,21.40
2019-05-20T06:48:29.034Z,21.30
2019-05-20T06:50:09.930Z,21.10
2019-05-20T06:51:46.489Z,21.10
2019-05-20T06:53:24.076Z,21.20
2019-05-20T06:55:01.821Z,21.40
2019-05-20T06:56:39.093Z,21.20
2019-05-20T06:58:17.413Z,21.30
2019-05-20T06:59:54.662Z,21.00
2019-05-20T07:01:32.535Z,21.10
2019-05-20T07:03:09.948Z,20.90
2019-05-20T07:04:46.414Z,21.00
2019-05-20T07:06:23.966Z,20.90
2019-05-20T07:08:01.536Z,21.10
2019-05-20T07:09:39.842Z,21.10
2019-05-20T07:11:16.296Z,21.00
2019-05-20T07:12:53.630Z,21.40
2019-05-20T07:14:30.537Z,21.50
2019-05-20T07:16:08.716Z,21.80
2019-05-20T07:17:47.878Z,21.90
2019-05-20T07:19:25.367Z,22.00
2019-05-20T07:21:02.432Z,21.90
2019-05-20T07:22:54.612Z,21.90
2019-05-20T07:24:17.872Z,21.90
2019-05-20T07:25:56.009Z,21.50
2019-05-20T07:27:32.834Z,22.00
2019-05-20T07:29:10.026Z,22.10
2019-05-20T07:30:46.532Z,22.00
2019-05-20T07:32:23.769Z,21.40
2019-05-20T07:34:00.064Z,21.00
2019-05-20T07:35:37.530Z,21.00
2019-05-20T07:37:14.040Z,20.90
2019-05-20T07:38:51.320Z,20.70
2019-05-20T07:40:33.122Z,20.50
2019-05-20T07:42:10.504Z,20.30
2019-05-20T07:43:46.985Z,20.20
2019-05-20T07:45:24.202Z,20.20
2019-05-20T07:47:00.167Z,20.20
2019-05-20T07:48:37.873Z,20.40
2019-05-20T07:50:14.997Z,20.30
2019-05-20T07:51:52.840Z,20.40
2019-05-20T07:53:29.676Z,20.20
2019-05-20T07:55:09.391Z,20.10
2019-05-20T07:56:50.504Z,20.10
2019-05-20T07:58:33.619Z,20.10
2019-05-20T08:00:11.397Z,20.00
2019-05-20T08:01:48.506Z,19.80
2019-05-20T08:03:24.979Z,19.80
2019-05-20T08:05:03.378Z,19.60
2019-05-20T08:06:40.403Z,19.50
2019-05-20T08:08:19.667Z,19.50
2019-05-20T08:09:56.439Z,19.40
2019-05-20T08:11:34.023Z,19.40
2019-05-20T08:13:11.689Z,19.40
2019-05-20T08:14:48.998Z,19.40
2019-05-20T08:16:25.602Z,19.40
2019-05-20T08:18:02.954Z,19.60
2019-05-20T08:19:39.461Z,19.70
2019-05-20T08:21:17.204Z,19.60
2019-05-20T08:22:53.700Z,19.40
2019-05-20T08:24:31.050Z,19.40
2019-05-20T08:26:07.664Z,19.40
2019-05-20T08:27:45.134Z,19.40
2019-05-20T08:29:21.637Z,19.40
2019-05-20T08:30:59.007Z,19.40
2019-05-20T08:32:36.056Z,19.50
2019-05-20T08:34:13.348Z,19.50
2019-05-20T08:35:49.777Z,19.50
2019-05-20T08:37:43.676Z,19.60
2019-05-20T08:39:08.642Z,19.50
2019-05-20T08:40:48.715Z,19.60
2019-05-20T08:42:24.108Z,19.70
2019-05-20T08:44:01.428Z,20.00
2019-05-20T08:45:38.935Z,20.20
2019-05-20T08:47:16.304Z,20.30
2019-05-20T08:48:52.771Z,20.00
2019-05-20T08:50:30.412Z,20.30
2019-05-20T08:52:06.851Z,20.40
2019-05-20T08:53:44.774Z,20.50
2019-05-20T08:55:21.488Z,20.70
2019-05-20T08:57:01.622Z,21.10
2019-05-20T08:58:38.414Z,21.30
2019-05-20T09:00:24.571Z,21.50
2019-05-20T09:02:02.395Z,21.70
2019-05-20T09:03:38.833Z,21.90
2019-05-20T09:05:16.679Z,21.80
2019-05-20T09:06:53.517Z,21.90
2019-05-20T09:08:30.925Z,21.60
2019-05-20T09:10:07.732Z,21.30
2019-05-20T09:11:47.661Z,21.30
2019-05-20T09:13:23.212Z,20.90
2019-05-20T09:15:02.166Z,20.90
2019-05-20T09:16:38.799Z,21.00
2019-05-20T09:18:17.919Z,20.70
2019-05-20T09:19:54.911Z,20.70
2019-05-20T09:21:33.049Z,20.60
2019-05-20T09:23:10.186Z,20.50
2019-05-20T09:24:47.798Z,20.60
2019-05-20T09:26:24.380Z,20.60
2019-05-20T09:28:03.480Z,20.50
2019-05-20T09:29:40.390Z,20.50
2019-05-20T09:31:17.842Z,20.60
2019-05-20T09:32:54.531Z,20.70
2019-05-20T09:34:32.257Z,20.70
2019-05-20T09:36:08.809Z,20.60
2019-05-20T09:37:45.914Z,20.50
2019-05-20T09:39:24.182Z,20.80
2019-05-20T09:41:01.628Z,20.80
2019-05-20T09:42:40.878Z,20.90
2019-05-20T09:44:17.307Z,21.10
2019-05-20T09:46:06.438Z,21.40
2019-05-20T09:47:33.273Z,21.50
2019-05-20T09:49:09.655Z,21.60
2019-05-20T09:50:46.836Z,21.60
2019-05-20T09:52:23.784Z,21.80
2019-05-20T09:54:02.148Z,21.40
2019-05-20T09:55:38.906Z,21.20
2019-05-20T09:57:17.181Z,20.90
2019-05-20T09:58:54.671Z,20.90
2019-05-20T10:00:32.325Z,21.20
2019-05-20T10:02:08.854Z,21.10
2019-05-20T10:03:46.300Z,21.20
2019-05-20T10:05:23.129Z,21.10
2019-05-20T10:07:00.355Z,21.10
2019-05-20T10:08:44.232Z,21.00
2019-05-20T10:10:16.697Z,21.00
2019-05-20T10:11:53.204Z,21.10
2019-05-20T10:13:30.756Z,21.30
2019-05-20T10:15:08.682Z,21.20
2019-05-20T10:16:46.132Z,21.00
2019-05-20T10:18:36.673Z,21.00
2019-05-20T10:20:01.821Z,21.30
2019-05-20T10:21:38.244Z,21.50
2019-05-20T10:23:15.988Z,21.30
2019-05-20T10:24:52.671Z,21.20
2019-05-20T10:26:30.157Z,21.50
2019-05-20T10:28:06.744Z,21.70
2019-05-20T10:29:44.075Z,21.80
2019-05-20T10:31:20.629Z,21.80
2019-05-20T10:32:57.859Z,21.10
2019-05-20T10:34:37.243Z,21.30
2019-05-20T10:36:14.153Z,21.40
2019-05-20T10:37:50.645Z,21.80
2019-05-20T10:39:28.037Z,22.10
2019-05-20T10:41:05.091Z,22.30
2019-05-20T10:43:00.892Z,22.00
2019-05-20T10:44:41.802Z,22.40
2019-05-20T10:46:16.633Z,22.30
2019-05-20T10:47:54.097Z,22.80
2019-05-20T10:49:30.458Z,22.70
2019-05-20T10:51:10.350Z,22.60
2019-05-20T10:52:46.546Z,22.40
2019-05-20T10:54:26.654Z,22.20
2019-05-20T10:56:03.321Z,22.50
2019-05-20T10:57:41.237Z,22.40
2019-05-20T10:59:17.706Z,22.00
2019-05-20T11:01:02.340Z,22.30
2019-05-20T11:02:33.055Z,22.20
2019-05-20T11:04:10.272Z,21.90
2019-05-20T11:05:46.807Z,22.00
2019-05-20T11:07:23.843Z,21.90
2019-05-20T11:09:13.048Z,21.90
2019-05-20T11:10:39.998Z,22.00
2019-05-20T11:12:16.432Z,22.00
2019-05-20T11:13:53.867Z,22.00
2019-05-20T11:15:30.448Z,22.00
2019-05-20T11:17:07.168Z,21.90
2019-05-20T11:18:43.649Z,21.90
2019-05-20T11:20:20.976Z,21.90
2019-05-20T11:21:57.732Z,22.10
2019-05-20T11:23:35.013Z,22.00
2019-05-20T11:25:12.514Z,22.10
2019-05-20T11:26:49.613Z,21.70
2019-05-20T11:28:26.078Z,21.50
2019-05-20T11:30:03.278Z,21.30
2019-05-20T11:31:39.894Z,21.30
2019-05-20T11:33:17.064Z,21.30
2019-05-20T11:34:53.603Z,21.50
2019-05-20T11:36:30.940Z,21.50
2019-05-20T11:38:07.510Z,21.20
2019-05-20T11:39:44.675Z,21.60
2019-05-20T11:41:51.279Z,21.70
2019-05-20T11:43:00.182Z,21.70
2019-05-20T11:44:36.730Z,21.70
2019-05-20T11:46:14.823Z,21.70
2019-05-20T11:47:51.463Z,21.60
2019-05-20T11:49:29.432Z,22.10
2019-05-20T11:51:06.292Z,22.30
2019-05-20T11:52:43.623Z,21.90
2019-05-20T11:54:20.317Z,22.00
2019-05-20T11:55:56.839Z,21.70
2019-05-20T11:57:33.302Z,21.80
2019-05-20T11:59:10.747Z,21.80
2019-05-20T12:00:47.373Z,22.00
2019-05-20T12:02:23.943Z,21.80
2019-05-20T12:04:01.229Z,21.80
2019-05-20T12:05:38.503Z,21.80
2019-05-20T12:07:15.010Z,21.90
2019-05-20T12:08:52.102Z,21.90
2019-05-20T12:10:28.535Z,22.10
2019-05-20T12:12:06.200Z,22.10
2019-05-20T12:13:42.790Z,21.90
2019-05-20T12:15:20.144Z,21.90
2019-05-20T12:16:56.508Z,21.80
2019-05-20T12:18:33.811Z,21.80
2019-05-20T12:20:12.615Z,21.90
2019-05-20T12:21:51.072Z,22.20
2019-05-20T12:23:28.651Z,22.10
2019-05-20T12:25:08.691Z,22.30
2019-05-20T12:26:45.126Z,22.20
2019-05-20T12:28:22.415Z,22.30
2019-05-20T12:29:59.250Z,22.40
2019-05-20T12:31:38.043Z,22.40
2019-05-20T12:33:18.943Z,22.20
2019-05-20T12:34:53.358Z,22.20
2019-05-20T12:36:29.722Z,22.00
2019-05-20T12:38:06.857Z,22.10
2019-05-20T12:39:43.266Z,22.40
2019-05-20T12:41:21.393Z,22.60
2019-05-20T12:42:57.873Z,22.70
2019-05-20T12:44:35.160Z,22.90
2019-05-20T12:46:12.520Z,22.70
2019-05-20T12:47:49.640Z,22.30
2019-05-20T12:49:26.376Z,22.30
2019-05-20T12:51:03.579Z,22.00
2019-05-20T12:52:40.389Z,21.90
2019-05-20T12:54:17.659Z,22.30
2019-05-20T12:55:53.531Z,22.60
2019-05-20T12:57:30.724Z,22.20
2019-05-20T12:59:07.492Z,22.20
2019-05-20T13:00:44.932Z,22.40
2019-05-20T13:02:21.292Z,22.60
2019-05-20T13:03:58.909Z,22.70
2019-05-20T13:05:35.640Z,23.00
2019-05-20T13:07:12.935Z,22.40
2019-05-20T13:08:49.370Z,22.50
2019-05-20T13:10:31.129Z,22.60
2019-05-20T13:12:04.825Z,22.80
2019-05-20T13:13:42.267Z,22.50
2019-05-20T13:15:19.185Z,22.40
2019-05-20T13:16:57.405Z,22.50
2019-05-20T13:18:35.436Z,22.00
2019-05-20T13:20:13.334Z,22.00
2019-05-20T13:21:49.769Z,22.00
2019-05-20T13:23:26.869Z,21.70
2019-05-20T13:25:03.709Z,21.50
2019-05-20T13:26:41.070Z,21.70
2019-05-20T13:28:17.671Z,21.70
2019-05-20T13:29:54.903Z,21.80
2019-05-20T13:31:31.323Z,22.00
2019-05-20T13:33:08.548Z,22.30
2019-05-20T13:34:45.049Z,22.60
2019-05-20T13:36:22.082Z,22.50
2019-05-20T13:37:58.624Z,22.10
2019-05-20T13:39:36.996Z,22.00
2019-05-20T13:41:14.278Z,21.80
2019-05-20T13:42:50.725Z,21.90
2019-05-20T13:44:28.067Z,21.90
2019-05-20T13:46:04.669Z,22.00
2019-05-20T13:47:43.619Z,22.10
2019-05-20T13:49:20.367Z,22.20
2019-05-20T13:50:57.613Z,22.00
2019-05-20T13:52:34.307Z,22.10
2019-05-20T13:54:12.119Z,22.00
2019-05-20T13:55:48.513Z,21.90
2019-05-20T13:57:25.630Z,21.90
2019-05-20T13:59:02.225Z,21.80
2019-05-20T14:00:39.556Z,21.80
2019-05-20T14:02:17.963Z,21.80
2019-05-20T14:03:57.227Z,21.60
2019-05-20T14:05:33.279Z,21.60
2019-05-20T14:07:10.520Z,21.50
2019-05-20T14:08:47.288Z,21.20
2019-05-20T14:10:24.772Z,21.30
2019-05-20T14:12:01.314Z,21.30
2019-05-20T14:13:38.591Z,21.30
2019-05-20T14:15:15.614Z,21.30
2019-05-20T14:16:52.809Z,21.40
2019-05-20T14:18:29.318Z,21.20
2019-05-20T14:20:08.350Z,21.20
2019-05-20T14:21:44.657Z,21.20
2019-05-20T14:23:23.741Z,21.40
2019-05-20T14:25:00.609Z,21.70
2019-05-20T14:26:38.524Z,22.00
2019-05-20T14:28:14.918Z,22.10
2019-05-20T14:29:54.991Z,21.90
2019-05-20T14:31:31.353Z,21.60
2019-05-20T14:33:08.652Z,21.80
2019-05-20T14:34:45.257Z,21.90
2019-05-20T14:36:38.739Z,21.90
2019-05-20T14:38:00.881Z,21.90
2019-05-20T14:39:38.395Z,22.00
2019-05-20T14:41:21.698Z,21.80
2019-05-20T14:42:53.717Z,21.50
2019-05-20T14:44:30.106Z,21.30
2019-05-20T14:46:07.296Z,21.20
2019-05-20T14:47:43.679Z,21.30
2019-05-20T14:49:20.986Z,21.20
2019-05-20T14:50:57.390Z,21.10
2019-05-20T14:52:34.579Z,21.00
2019-05-20T14:54:10.870Z,21.00
2019-05-20T14:55:48.292Z,21.10
2019-05-20T14:57:24.768Z,21.40
2019-05-20T14:59:02.187Z,21.50
2019-05-20T15:00:38.945Z,21.40
2019-05-20T15:02:16.713Z,21.60
2019-05-20T15:03:53.069Z,21.80
2019-05-20T15:05:32.319Z,22.00
2019-05-20T15:07:09.326Z,21.80
2019-05-20T15:08:46.791Z,21.80
2019-05-20T15:10:23.557Z,22.00
2019-05-20T15:12:00.646Z,21.90
2019-05-20T15:13:38.954Z,21.70
2019-05-20T15:15:16.893Z,21.60
2019-05-20T15:16:53.395Z,21.30
2019-05-20T15:18:31.618Z,21.10
2019-05-20T15:20:09.530Z,21.10
2019-05-20T15:21:46.835Z,21.10
2019-05-20T15:23:23.351Z,21.00
2019-05-20T15:25:00.754Z,21.00
2019-05-20T15:26:37.358Z,21.00
2019-05-20T15:28:14.464Z,21.00
2019-05-20T15:29:51.225Z,21.00
2019-05-20T15:31:28.320Z,21.20
2019-05-20T15:33:05.310Z,21.20
2019-05-20T15:34:42.942Z,21.10
2019-05-20T15:36:19.463Z,21.10
2019-05-20T15:37:56.686Z,21.00
2019-05-20T15:39:33.228Z,20.90
2019-05-20T15:41:10.822Z,20.80
2019-05-20T15:42:47.301Z,20.80
2019-05-20T15:44:24.315Z,20.70
2019-05-20T15:46:00.689Z,20.80
2019-05-20T15:47:37.855Z,20.70
2019-05-20T15:49:14.380Z,20.70
2019-05-20T15:50:51.660Z,20.60
2019-05-20T15:52:28.680Z,20.50
2019-05-20T15:54:06.001Z,20.60
2019-05-20T15:55:42.483Z,20.50
2019-05-20T15:57:19.808Z,20.60
2019-05-20T15:58:57.368Z,20.60
2019-05-20T16:00:34.935Z,20.60
2019-05-20T16:02:14.358Z,20.60
2019-05-20T16:03:51.873Z,20.30
2019-05-20T16:05:28.610Z,20.30
2019-05-20T16:07:05.793Z,20.40
2019-05-20T16:08:42.240Z,20.40
2019-05-20T16:10:19.927Z,20.40
2019-05-20T16:11:56.683Z,20.40
2019-05-20T16:13:34.704Z,20.30
2019-05-20T16:15:11.538Z,20.30
2019-05-20T16:16:48.975Z,20.30
2019-05-20T16:18:25.429Z,20.30
2019-05-20T16:20:02.698Z,20.30
2019-05-20T16:21:39.277Z,20.40
2019-05-20T16:23:16.389Z,20.30
2019-05-20T16:24:52.941Z,20.30
2019-05-20T16:26:30.365Z,20.30
2019-05-20T16:28:07.387Z,20.30
2019-05-20T16:30:00.679Z,20.30
2019-05-20T16:31:23.064Z,20.30
2019-05-20T16:33:01.414Z,20.30
2019-05-20T16:34:38.778Z,20.30
2019-05-20T16:36:15.806Z,20.30
2019-05-20T16:37:52.265Z,20.30
2019-05-20T16:39:31.106Z,20.30
2019-05-20T16:41:08.024Z,20.30
2019-05-20T16:42:45.258Z,20.20
2019-05-20T16:44:21.803Z,20.10
2019-05-20T16:45:59.075Z,20.10
2019-05-20T16:47:35.522Z,20.10
2019-05-20T16:49:12.788Z,20.10
2019-05-20T16:50:49.236Z,20.00
2019-05-20T16:52:27.074Z,20.00
2019-05-20T16:54:03.676Z,20.00
2019-05-20T16:55:41.135Z,19.90
2019-05-20T16:57:17.743Z,19.90
2019-05-20T16:58:54.914Z,19.90
2019-05-20T17:00:32.416Z,19.90
2019-05-20T17:02:10.177Z,19.80
2019-05-20T17:03:46.614Z,19.80
2019-05-20T17:05:24.000Z,19.90
2019-05-20T17:07:00.525Z,20.00
2019-05-20T17:08:37.966Z,19.80
2019-05-20T17:10:15.035Z,19.70
2019-05-20T17:11:52.459Z,19.60
2019-05-20T17:13:28.999Z,19.70
2019-05-20T17:15:08.018Z,19.60
2019-05-20T17:16:44.512Z,19.60
2019-05-20T17:18:21.632Z,19.60
2019-05-20T17:19:58.494Z,19.50
2019-05-20T17:21:35.758Z,19.50
2019-05-20T17:23:12.387Z,19.40
2019-05-20T17:24:49.698Z,19.40
2019-05-20T17:26:26.053Z,19.40
2019-05-20T17:28:03.224Z,19.40
2019-05-20T17:29:39.783Z,19.30
2019-05-20T17:31:17.021Z,19.30
2019-05-20T17:32:53.389Z,19.30
2019-05-20T17:34:30.590Z,19.30
2019-05-20T17:36:07.239Z,19.20
2019-05-20T17:37:44.429Z,19.20
2019-05-20T17:39:22.445Z,19.30
2019-05-20T17:40:59.906Z,19.30
2019-05-20T17:42:36.363Z,19.20
2019-05-20T17:44:13.530Z,19.20
2019-05-20T17:45:50.128Z,19.10
2019-05-20T17:47:27.600Z,19.00
2019-05-20T17:49:04.131Z,19.00
2019-05-20T17:50:41.709Z,19.00
2019-05-20T17:52:18.208Z,19.00
2019-05-20T17:53:56.436Z,18.90
2019-05-20T17:55:32.892Z,18.90
2019-05-20T17:57:10.333Z,18.90
2019-05-20T17:58:46.703Z,18.80
2019-05-20T18:00:24.653Z,18.80
2019-05-20T18:02:01.202Z,18.80
2019-05-20T18:03:38.304Z,18.70
2019-05-20T18:05:15.422Z,18.70
2019-05-20T18:06:52.803Z,18.70
2019-05-20T18:08:31.120Z,18.60
2019-05-20T18:10:09.328Z,18.60
2019-05-20T18:11:46.069Z,18.50
2019-05-20T18:13:23.282Z,18.60
2019-05-20T18:15:01.420Z,18.50
2019-05-20T18:16:38.695Z,18.60
2019-05-20T18:18:15.380Z,18.50
2019-05-20T18:19:53.631Z,18.50
2019-05-20T18:21:30.071Z,18.50
2019-05-20T18:23:07.421Z,18.40
2019-05-20T18:24:43.828Z,18.40
2019-05-20T18:26:20.945Z,18.30
2019-05-20T18:27:58.878Z,18.40
2019-05-20T18:29:36.284Z,18.50
2019-05-20T18:31:12.824Z,18.40
2019-05-20T18:32:50.012Z,18.30
2019-05-20T18:34:26.651Z,18.30
2019-05-20T18:36:03.829Z,18.40
2019-05-20T18:37:40.448Z,18.30
2019-05-20T18:39:17.624Z,18.30
2019-05-20T18:40:54.244Z,18.30
2019-05-20T18:42:31.605Z,18.20
2019-05-20T18:44:08.168Z,18.20
2019-05-20T18:45:49.448Z,18.10
2019-05-20T18:47:25.813Z,18.10
2019-05-20T18:49:02.935Z,18.00
2019-05-20T18:50:39.477Z,17.90
2019-05-20T18:52:16.699Z,18.00
2019-05-20T18:53:56.158Z,17.90
2019-05-20T18:55:34.999Z,17.80
2019-05-20T18:57:13.301Z,17.80
2019-05-20T18:58:50.487Z,17.70
2019-05-20T19:00:27.304Z,17.70
2019-05-20T19:02:05.712Z,17.60
2019-05-20T19:03:42.261Z,17.60
2019-05-20T19:05:19.735Z,17.60
2019-05-20T19:06:58.529Z,17.60
2019-05-20T19:08:35.909Z,17.60
2019-05-20T19:10:12.934Z,17.60
2019-05-20T19:11:51.042Z,17.50
2019-05-20T19:13:27.549Z,17.40
2019-05-20T19:15:05.795Z,17.40
2019-05-20T19:16:42.272Z,17.30
2019-05-20T19:18:19.572Z,17.30
2019-05-20T19:19:56.015Z,17.30
2019-05-20T19:21:33.354Z,17.30
2019-05-20T19:23:09.998Z,17.20
2019-05-20T19:24:47.171Z,17.20
2019-05-20T19:26:25.326Z,17.20
2019-05-20T19:28:02.963Z,17.20
2019-05-20T19:29:41.277Z,17.20
2019-05-20T19:31:18.605Z,17.10
2019-05-20T19:32:57.684Z,17.10
2019-05-20T19:34:35.263Z,17.10
2019-05-20T19:36:11.796Z,17.00
2019-05-20T19:37:49.082Z,17.00
2019-05-20T19:39:25.728Z,17.00
2019-05-20T19:41:02.184Z,17.00
2019-05-20T19:42:41.178Z,17.00
2019-05-20T19:44:18.345Z,16.80
2019-05-20T19:45:54.709Z,16.90
2019-05-20T19:47:31.911Z,16.80
2019-05-20T19:49:10.832Z,16.80
2019-05-20T19:50:48.080Z,16.80
2019-05-20T19:52:25.431Z,16.80
2019-05-20T19:55:39.999Z,16.70
2019-05-20T19:57:17.355Z,16.70
2019-05-20T19:58:53.723Z,16.60
2019-05-20T20:00:31.071Z,16.60
2019-05-20T20:02:17.006Z,16.60
2019-05-20T20:03:46.236Z,16.60
2019-05-20T20:05:22.744Z,16.60
2019-05-20T20:06:59.753Z,16.60
2019-05-20T20:08:36.195Z,16.60
2019-05-20T20:10:13.840Z,16.60
2019-05-20T20:11:50.453Z,16.60
2019-05-20T20:13:27.926Z,16.60
2019-05-20T20:15:08.528Z,16.60
2019-05-20T20:16:45.582Z,16.50
2019-05-20T20:18:22.215Z,16.50
2019-05-20T20:19:59.394Z,16.40
2019-05-20T20:21:36.024Z,16.40
2019-05-20T20:23:13.399Z,16.30
2019-05-20T20:24:50.214Z,16.30
2019-05-20T20:26:27.424Z,16.30
2019-05-20T20:28:04.961Z,16.30
2019-05-20T20:29:42.400Z,16.30
2019-05-20T20:31:18.869Z,16.30
2019-05-20T20:32:56.155Z,16.20
2019-05-20T20:34:32.683Z,16.30
2019-05-20T20:36:10.079Z,16.30
2019-05-20T20:37:46.883Z,16.20
2019-05-20T20:39:24.170Z,16.20
2019-05-20T20:41:00.709Z,16.20
2019-05-20T20:42:37.977Z,16.20
2019-05-20T20:44:15.479Z,16.20
2019-05-20T20:45:52.779Z,16.10
2019-05-20T20:47:40.856Z,16.10
2019-05-20T20:49:08.297Z,16.10
2019-05-20T20:50:45.099Z,16.10
2019-05-20T20:52:22.446Z,16.10
2019-05-20T20:53:58.913Z,16.00
2019-05-20T20:55:36.667Z,16.00
2019-05-20T20:57:13.212Z,16.00